Airfield :
LOGIN :

Register | Disclaimer

   EN    FR    IT 

 










Legend :    VFR   Marginal VFR   IFR   Intensive IFR   Very Intensive IFR
Visi :
Ceiling :
>= 8 km
>= 3000ft
5 to 8 km
1000 to 3000 ft
1500m to 5 km
500 to 1000 ft
800 to 1500m
200 to 500 ft
< 800m
< 200 ft
Symbols :   Thunderstorms  Fog  Heavy snow  Heavy precipitations  Wind > 20 kt
SIGMETs :     Misc.  Thunderstorms  Icing  Turbulence  Mountain Waves  Volcanic Ashes






- Airport Elevation : 821 ft
- IATA code : LYS


LFLL - Lyon St Exupéry / Satolas

CURRENT METAR :
  • 181100Z 04004KT 350V100 9999 FEW015 SCT260 06/03 Q1029 NOSIG

EXPIRED METARs :
  • 181030Z 04005KT 350V060 9999 FEW015 SCT260 06/03 Q1030 NOSIG
  • 181000Z 35004KT 310V020 9999 FEW013 05/03 Q1030 NOSIG
  • 180930Z VRB01KT 9999 FEW045 05/03 Q1030 NOSIG
  • 180900Z VRB03KT 9999 FEW040 03/03 Q1030 NOSIG
  • 180830Z 23003KT 9999 FEW040 02/02 Q1030 NOSIG

TAF AMD TAF LFLL
Valid from the 18 at 06:00 until the 19 at 12:00 UTC


180626Z 1806/1912 36002KT 9999 SCT030
PROB40
TEMPO 1806/1808 0400 BCFG
BECMG 1810/1812 36007KT
BECMG 1813/1815 CAVOK
BECMG 1901/1903 BKN009
BECMG 1908/1910 36017KT
BECMG 1910/1912 BKN014



MET'MAP, your aeronautical weather chart ! - Copyright ORBIFLY December 2007 - Disclaimer

ORBIFLY MET'MAP TEAM :

Programming & Development : Alexandra Zaïnal
Concept & original design : Baudouin d'Aumeries
Assistance for programming : Marc-Olivier Méhu
Technical & hardware support : Manuel Goepfert

Contact : metmap@orbifly.com




SOURCES & CREDITS :

   NOAA